createdAt,value
2023-01-28T17:55:05.966Z,-1.82
2023-01-28T17:56:06.925Z,-1.85
2023-01-28T17:57:06.919Z,-1.85
2023-01-28T17:58:06.917Z,-1.85
2023-01-28T17:59:06.918Z,-1.84
2023-01-28T18:00:06.880Z,-1.87
2023-01-28T18:01:07.072Z,-1.88
2023-01-28T18:02:06.866Z,-1.88
2023-01-28T18:03:06.857Z,-1.87
2023-01-28T18:04:06.839Z,-1.88
2023-01-28T18:05:06.829Z,-1.88
2023-01-28T18:06:06.807Z,-1.88
2023-01-28T18:07:06.795Z,-1.87
2023-01-28T18:08:06.815Z,-1.84
2023-01-28T18:09:06.791Z,-1.84
2023-01-28T18:10:06.771Z,-1.85
2023-01-28T18:11:06.818Z,-1.87
2023-01-28T18:12:06.757Z,-1.90
2023-01-28T18:13:06.771Z,-1.90
2023-01-28T18:14:06.756Z,-1.95
2023-01-28T18:15:06.730Z,-1.96
2023-01-28T18:16:06.720Z,-2.00
2023-01-28T18:17:06.803Z,-2.05
2023-01-28T18:18:06.712Z,-2.06
2023-01-28T18:19:07.838Z,-2.10
2023-01-28T18:20:08.673Z,-2.11
2023-01-28T18:21:06.688Z,-2.13
2023-01-28T18:22:07.513Z,-2.13
2023-01-28T18:23:06.716Z,-2.17
2023-01-28T18:24:06.665Z,-2.18
2023-01-28T18:25:06.635Z,-2.21
2023-01-28T18:26:06.616Z,-2.23
2023-01-28T18:27:06.616Z,-2.28
2023-01-28T18:28:06.591Z,-2.28
2023-01-28T18:29:06.601Z,-2.26
2023-01-28T18:30:06.554Z,-2.26
2023-01-28T18:31:06.608Z,-2.32
2023-01-28T18:32:06.596Z,-2.35
2023-01-28T18:33:06.572Z,-2.36
2023-01-28T18:34:06.543Z,-2.35
2023-01-28T18:35:06.523Z,-2.33
2023-01-28T18:36:06.505Z,-2.36
2023-01-28T18:37:06.498Z,-2.35
2023-01-28T18:38:06.492Z,-2.36
2023-01-28T18:39:06.517Z,-2.33
2023-01-28T18:40:06.534Z,-2.29
2023-01-28T18:41:06.480Z,-2.32
2023-01-28T18:42:06.474Z,-2.32
2023-01-28T18:43:06.444Z,-2.32
2023-01-28T18:44:06.430Z,-2.33
2023-01-28T18:45:06.431Z,-2.32
2023-01-28T18:46:06.436Z,-2.32
2023-01-28T18:47:06.399Z,-2.32
2023-01-28T18:48:06.379Z,-2.32
2023-01-28T18:49:06.375Z,-2.29
2023-01-28T18:50:06.368Z,-2.29
2023-01-28T18:51:06.441Z,-2.29
2023-01-28T18:52:06.361Z,-2.33
2023-01-28T18:53:06.333Z,-2.35
2023-01-28T18:54:09.530Z,-2.33
2023-01-28T18:55:06.316Z,-2.36
2023-01-28T18:56:06.285Z,-2.35
2023-01-28T18:57:06.317Z,-2.35
2023-01-28T18:58:06.328Z,-2.38
2023-01-28T18:59:06.263Z,-2.36
2023-01-28T19:00:06.281Z,-2.36
2023-01-28T19:01:06.278Z,-2.36
2023-01-28T19:02:06.245Z,-2.38
2023-01-28T19:03:06.227Z,-2.35
2023-01-28T19:04:06.212Z,-2.36
2023-01-28T19:05:06.231Z,-2.35
2023-01-28T19:06:06.202Z,-2.33
2023-01-28T19:07:08.124Z,-2.29
2023-01-28T19:08:06.175Z,-2.28
2023-01-28T19:09:06.170Z,-2.28
2023-01-28T19:10:06.147Z,-2.29
2023-01-28T19:11:06.172Z,-2.26
2023-01-28T19:12:06.132Z,-2.26
2023-01-28T19:13:06.132Z,-2.23
2023-01-28T19:14:06.107Z,-2.24
2023-01-28T19:15:06.112Z,-2.20
2023-01-28T19:16:06.199Z,-2.21
2023-01-28T19:17:06.095Z,-2.18
2023-01-28T19:18:06.068Z,-2.16
2023-01-28T19:19:06.068Z,-2.13
2023-01-28T19:20:06.075Z,-2.10
2023-01-28T19:21:06.090Z,-2.06
2023-01-28T19:22:06.040Z,-2.06
2023-01-28T19:23:06.113Z,-2.05
2023-01-28T19:24:06.038Z,-2.03
2023-01-28T19:25:06.044Z,-2.02
2023-01-28T19:26:06.025Z,-2.02
2023-01-28T19:27:05.989Z,-1.99
2023-01-28T19:28:05.969Z,-2.00
2023-01-28T19:29:06.023Z,-1.98
2023-01-28T19:30:05.956Z,-1.95
2023-01-28T19:31:05.951Z,-1.96
2023-01-28T19:32:06.009Z,-1.96
2023-01-28T19:33:05.933Z,-1.98
2023-01-28T19:34:05.901Z,-1.95
2023-01-28T19:35:05.945Z,-1.92
2023-01-28T19:36:05.906Z,-1.80
2023-01-28T19:37:05.907Z,-1.77
2023-01-28T19:38:06.647Z,-1.77
2023-01-28T19:39:05.859Z,-1.78
2023-01-28T19:40:05.833Z,-1.69
2023-01-28T19:41:05.846Z,-1.66
2023-01-28T19:42:05.819Z,-1.69
2023-01-28T19:43:05.826Z,-1.67
2023-01-28T19:44:05.803Z,-1.67
2023-01-28T19:45:05.798Z,-1.69
2023-01-28T19:46:05.828Z,-1.69
2023-01-28T19:47:05.814Z,-1.70
2023-01-28T19:48:05.779Z,-1.72
2023-01-28T19:49:05.777Z,-1.70
2023-01-28T19:50:05.744Z,-1.69
2023-01-28T19:51:05.735Z,-1.69
2023-01-28T19:52:05.723Z,-1.67
2023-01-28T19:53:05.746Z,-1.64
2023-01-28T19:54:05.711Z,-1.62
2023-01-28T19:55:05.702Z,-1.62
2023-01-28T19:56:05.704Z,-1.62
2023-01-28T19:57:05.684Z,-1.62
2023-01-28T19:58:05.655Z,-1.60
2023-01-28T19:59:05.678Z,-1.60
2023-01-28T20:00:05.676Z,-1.63
2023-01-28T20:01:05.721Z,-1.63
2023-01-28T20:02:05.696Z,-1.66
2023-01-28T20:03:05.621Z,-1.62
2023-01-28T20:04:05.623Z,-1.62
2023-01-28T20:05:05.618Z,-1.59
2023-01-28T20:06:06.382Z,-1.57
2023-01-28T20:07:05.595Z,-1.56
2023-01-28T20:08:05.569Z,-1.56
2023-01-28T20:09:05.555Z,-1.59
2023-01-28T20:10:05.559Z,-1.57
2023-01-28T20:11:05.579Z,-1.49
2023-01-28T20:12:05.517Z,-1.46
2023-01-28T20:13:05.527Z,-1.48
2023-01-28T20:14:05.549Z,-1.49
2023-01-28T20:15:05.512Z,-1.48
2023-01-28T20:16:05.553Z,-1.51
2023-01-28T20:17:05.501Z,-1.51
2023-01-28T20:18:05.455Z,-1.54
2023-01-28T20:19:05.488Z,-1.54
2023-01-28T20:20:05.543Z,-1.53
2023-01-28T20:21:05.445Z,-1.57
2023-01-28T20:22:05.441Z,-1.59
2023-01-28T20:23:05.419Z,-1.60
2023-01-28T20:24:05.406Z,-1.62
2023-01-28T20:25:05.442Z,-1.62
2023-01-28T20:26:05.375Z,-1.63
2023-01-28T20:27:05.367Z,-1.63
2023-01-28T20:28:05.397Z,-1.64
2023-01-28T20:29:05.389Z,-1.66
2023-01-28T20:30:05.337Z,-1.64
2023-01-28T20:31:05.507Z,-1.66
2023-01-28T20:32:17.548Z,-1.66
2023-01-28T20:33:05.319Z,-1.64
2023-01-28T20:34:05.323Z,-1.69
2023-01-28T20:35:05.289Z,-1.66
2023-01-28T20:36:05.340Z,-1.62
2023-01-28T20:37:05.285Z,-1.62
2023-01-28T20:38:05.207Z,-1.59
2023-01-28T20:39:05.249Z,-1.60
2023-01-28T20:40:05.240Z,-1.59
2023-01-28T20:41:05.241Z,-1.59
2023-01-28T20:42:05.206Z,-1.62
2023-01-28T20:43:05.210Z,-1.57
2023-01-28T20:44:05.227Z,-1.54
2023-01-28T20:45:05.206Z,-1.54
2023-01-28T20:46:05.223Z,-1.45
2023-01-28T20:47:05.170Z,-1.42
2023-01-28T20:48:05.158Z,-1.38
2023-01-28T20:49:05.164Z,-1.38
2023-01-28T20:50:05.134Z,-1.38
2023-01-28T20:51:05.137Z,-1.36
2023-01-28T20:52:05.115Z,-1.35
2023-01-28T20:53:05.099Z,-1.35
2023-01-28T20:54:05.098Z,-1.36
2023-01-28T20:55:05.099Z,-1.33
2023-01-28T20:56:05.108Z,-1.23
2023-01-28T20:57:05.091Z,-1.15
2023-01-28T20:58:05.045Z,-1.06
2023-01-28T20:59:05.061Z,-0.84
2023-01-28T21:00:05.046Z,-0.73
2023-01-28T21:01:05.061Z,-0.68
2023-01-28T21:02:05.011Z,-0.63
2023-01-28T21:03:05.028Z,-0.62
2023-01-28T21:04:04.989Z,-0.65
2023-01-28T21:05:04.992Z,-0.65
2023-01-28T21:06:04.978Z,-0.60
2023-01-28T21:07:04.974Z,-0.51
2023-01-28T21:08:04.976Z,-0.44
2023-01-28T21:09:04.947Z,-0.42
2023-01-28T21:10:04.921Z,-0.39
2023-01-28T21:11:04.931Z,-0.41
2023-01-28T21:12:04.897Z,-0.36
2023-01-28T21:13:04.915Z,-0.24
2023-01-28T21:14:04.896Z,-0.19
2023-01-28T21:15:04.931Z,-0.22
2023-01-28T21:16:04.867Z,-0.26
2023-01-28T21:17:04.995Z,-0.29
2023-01-28T21:18:04.867Z,-0.33
2023-01-28T21:19:04.846Z,-0.36
2023-01-28T21:20:04.881Z,-0.39
2023-01-28T21:21:04.830Z,-0.42
2023-01-28T21:22:04.799Z,-0.45
2023-01-28T21:23:04.796Z,-0.44
2023-01-28T21:24:04.836Z,-0.42
2023-01-28T21:25:05.586Z,-0.33
2023-01-28T21:26:04.770Z,-0.31
2023-01-28T21:27:04.782Z,-0.27
2023-01-28T21:28:04.743Z,-0.27
2023-01-28T21:29:04.758Z,-0.23
2023-01-28T21:30:04.729Z,-0.23
2023-01-28T21:31:04.731Z,-0.24
2023-01-28T21:32:04.743Z,-0.23
2023-01-28T21:33:04.721Z,-0.27
2023-01-28T21:34:04.689Z,-0.29
2023-01-28T21:35:04.698Z,-0.31
2023-01-28T21:36:04.666Z,-0.27
2023-01-28T21:37:04.686Z,-0.24
2023-01-28T21:38:04.645Z,-0.26
2023-01-28T21:39:04.641Z,-0.23
2023-01-28T21:40:04.630Z,-0.16
2023-01-28T21:41:04.638Z,-0.12
2023-01-28T21:42:04.615Z,-0.15
2023-01-28T21:43:04.605Z,-0.09
2023-01-28T21:44:04.654Z,-0.12
2023-01-28T21:45:04.575Z,-0.09
2023-01-28T21:46:04.652Z,-0.11
2023-01-28T21:47:04.546Z,-0.13
2023-01-28T21:48:04.577Z,-0.15
2023-01-28T21:49:04.528Z,-0.22
2023-01-28T21:50:04.487Z,-0.18
2023-01-28T21:51:06.774Z,-0.22
2023-01-28T21:52:04.507Z,-0.23
2023-01-28T21:53:04.503Z,-0.29
2023-01-28T21:54:04.550Z,-0.31
2023-01-28T21:55:04.474Z,-0.26
2023-01-28T21:56:04.488Z,-0.27
2023-01-28T21:57:04.446Z,-0.30
2023-01-28T21:58:04.461Z,-0.27
2023-01-28T21:59:04.440Z,-0.30
2023-01-28T22:00:04.433Z,-0.31
2023-01-28T22:01:04.438Z,-0.34
2023-01-28T22:02:04.419Z,-0.36
2023-01-28T22:03:04.502Z,-0.37
2023-01-28T22:04:04.430Z,-0.37
2023-01-28T22:05:04.368Z,-0.37
2023-01-28T22:06:04.379Z,-0.41
2023-01-28T22:07:04.403Z,-0.45
2023-01-28T22:08:04.360Z,-0.30
2023-01-28T22:09:04.391Z,-0.23
2023-01-28T22:10:04.330Z,-0.13
2023-01-28T22:11:04.354Z,-0.11
2023-01-28T22:12:04.337Z,-0.08
2023-01-28T22:13:04.303Z,-0.04
2023-01-28T22:14:04.300Z,0.06
2023-01-28T22:15:04.293Z,0.10
2023-01-28T22:16:04.279Z,0.10
2023-01-28T22:17:04.316Z,0.06
2023-01-28T22:18:04.381Z,0.05
2023-01-28T22:19:04.250Z,0.02
2023-01-28T22:20:04.235Z,0.12
2023-01-28T22:21:04.221Z,0.15
2023-01-28T22:22:04.284Z,0.10
2023-01-28T22:23:04.203Z,0.09
2023-01-28T22:24:04.195Z,0.16
2023-01-28T22:25:04.183Z,0.13
2023-01-28T22:26:04.197Z,0.24
2023-01-28T22:27:04.187Z,0.30
2023-01-28T22:28:04.155Z,0.33
2023-01-28T22:29:04.163Z,0.38
2023-01-28T22:30:04.155Z,0.41
2023-01-28T22:31:04.183Z,0.52
2023-01-28T22:32:04.210Z,0.58
2023-01-28T22:33:04.122Z,0.53
2023-01-28T22:34:04.112Z,0.49
2023-01-28T22:35:04.095Z,0.45
2023-01-28T22:36:04.069Z,0.48
2023-01-28T22:37:04.051Z,0.42
2023-01-28T22:38:04.129Z,0.38
2023-01-28T22:39:04.046Z,0.42
2023-01-28T22:40:04.274Z,0.48
2023-01-28T22:41:04.014Z,0.46
2023-01-28T22:42:04.045Z,0.51
2023-01-28T22:43:04.015Z,0.51
2023-01-28T22:44:03.994Z,0.42
2023-01-28T22:45:03.988Z,0.38
2023-01-28T22:46:04.051Z,0.28
2023-01-28T22:47:03.976Z,0.23
2023-01-28T22:48:03.956Z,0.13
2023-01-28T22:49:03.935Z,0.07
2023-01-28T22:50:03.982Z,0.00
2023-01-28T22:51:03.925Z,-0.01
2023-01-28T22:52:03.909Z,-0.05
2023-01-28T22:53:03.906Z,-0.06
2023-01-28T22:54:03.911Z,-0.05
2023-01-28T22:55:03.895Z,-0.05
2023-01-28T22:56:03.892Z,-0.06
2023-01-28T22:57:03.872Z,-0.05
2023-01-28T22:58:03.865Z,-0.06
2023-01-28T22:59:03.846Z,-0.12
2023-01-28T23:00:03.860Z,-0.12
2023-01-28T23:01:03.823Z,-0.12
2023-01-28T23:02:03.949Z,-0.15
2023-01-28T23:03:03.833Z,-0.12
2023-01-28T23:04:03.847Z,-0.12
2023-01-28T23:05:03.772Z,-0.13
2023-01-28T23:06:03.799Z,-0.09
2023-01-28T23:07:03.757Z,-0.06
2023-01-28T23:08:03.831Z,-0.05
2023-01-28T23:09:03.760Z,0.00
2023-01-28T23:10:03.760Z,0.02
2023-01-28T23:11:03.711Z,0.02
2023-01-28T23:12:03.718Z,0.02
2023-01-28T23:13:03.695Z,0.02
2023-01-28T23:14:04.418Z,0.03
2023-01-28T23:15:03.688Z,0.03
2023-01-28T23:16:03.684Z,0.00
2023-01-28T23:17:03.703Z,-0.04
2023-01-28T23:18:03.655Z,-0.04
2023-01-28T23:19:03.636Z,-0.04
2023-01-28T23:20:03.656Z,0.00
2023-01-28T23:21:03.616Z,0.02
2023-01-28T23:22:03.631Z,0.09
2023-01-28T23:23:03.654Z,0.25
2023-01-28T23:24:03.691Z,0.30
2023-01-28T23:25:03.580Z,0.34
2023-01-28T23:26:05.048Z,0.34
2023-01-28T23:27:03.569Z,0.34
2023-01-28T23:28:03.575Z,0.33
2023-01-28T23:29:03.538Z,0.31
2023-01-28T23:30:03.531Z,0.33
2023-01-28T23:31:03.615Z,0.28
2023-01-28T23:32:03.519Z,0.27
2023-01-28T23:33:03.512Z,0.24
2023-01-28T23:34:03.509Z,0.23
2023-01-28T23:35:03.484Z,0.20
2023-01-28T23:36:03.477Z,0.16
2023-01-28T23:37:03.475Z,0.13
2023-01-28T23:38:03.494Z,0.09
2023-01-28T23:39:03.444Z,0.07
2023-01-28T23:40:03.450Z,0.06
2023-01-28T23:41:03.418Z,-0.01
2023-01-28T23:42:03.426Z,-0.01
2023-01-28T23:43:03.447Z,0.00
2023-01-28T23:44:03.407Z,-0.04
2023-01-28T23:45:03.388Z,-0.04
2023-01-28T23:46:03.395Z,-0.01
2023-01-28T23:47:03.415Z,-0.01
2023-01-28T23:48:03.389Z,0.05
2023-01-28T23:49:03.351Z,0.03
2023-01-28T23:50:03.365Z,0.07
2023-01-28T23:51:03.343Z,0.09
2023-01-28T23:52:03.311Z,0.07
2023-01-28T23:53:03.316Z,0.05
2023-01-28T23:54:03.314Z,0.03
2023-01-28T23:55:03.297Z,0.00
2023-01-28T23:56:03.285Z,0.00
2023-01-28T23:57:03.291Z,-0.01
2023-01-28T23:58:03.268Z,-0.06
2023-01-28T23:59:03.265Z,-0.08
